Terminal Aerodrome Forecast
Issued by NWS

Home | Current Version | Previous Version | Graphics & Text | Print | Product List | Glossary On
Versions: 1 2 3 4 5 6 7 8 9 10 11 12 13 14 15 16 17 18 19 20 21 22 23 24 25 26
848
FTUS43 KABR 100814 AAB
TAFPIR
TAF AMD
KPIR 100814Z 1008/1106 06007KT P6SM BKN045
     FM101000 09008KT 3SM -SN OVC015
     FM101700 10014KT 4SM -SN OVC010
     FM110200 08011KT P6SM OVC008=

USA.gov is the U.S. government's official web portal to all federal, state and local government web resources and services.